createdAt,value
2022-08-31T00:24:35.326Z,59.49
2022-08-31T00:25:42.254Z,59.91
2022-08-31T00:26:46.073Z,60.08
2022-08-31T00:27:50.839Z,60.06
2022-08-31T00:28:54.619Z,60.48
2022-08-31T00:29:58.504Z,60.29
2022-08-31T00:31:02.633Z,60.17
2022-08-31T00:32:06.595Z,60.67
2022-08-31T00:33:13.227Z,60.53
2022-08-31T00:34:17.077Z,60.76
2022-08-31T00:35:20.614Z,60.47
2022-08-31T00:36:25.859Z,60.67
2022-08-31T00:37:29.773Z,60.50
2022-08-31T00:38:35.199Z,60.87
2022-08-31T00:39:38.000Z,60.82
2022-08-31T00:40:45.366Z,60.71
2022-08-31T00:41:52.026Z,61.21
2022-08-31T00:42:57.242Z,61.35
2022-08-31T00:44:05.107Z,61.75
2022-08-31T00:45:10.492Z,61.86
2022-08-31T00:46:18.886Z,62.33
2022-08-31T00:47:26.070Z,62.42
2022-08-31T00:48:29.723Z,62.58
2022-08-31T00:49:41.634Z,62.75
2022-08-31T00:50:48.185Z,62.86
2022-08-31T00:52:04.196Z,63.14
2022-08-31T00:53:07.980Z,63.37
2022-08-31T00:54:15.381Z,62.93
2022-08-31T00:55:26.286Z,63.03
2022-08-31T00:56:32.958Z,63.16
2022-08-31T00:57:42.815Z,63.25
2022-08-31T00:58:48.900Z,63.16
2022-08-31T00:59:52.227Z,62.92
2022-08-31T01:00:55.887Z,62.87
2022-08-31T01:01:59.903Z,62.60
2022-08-31T01:03:08.563Z,62.85
2022-08-31T01:04:12.715Z,62.86
2022-08-31T01:05:18.735Z,62.70
2022-08-31T01:06:24.445Z,62.71
2022-08-31T01:07:31.560Z,62.58
2022-08-31T01:08:39.614Z,62.59
2022-08-31T01:09:55.903Z,62.62
2022-08-31T01:10:56.657Z,62.63
2022-08-31T01:12:00.512Z,62.71
2022-08-31T01:13:06.445Z,62.50
2022-08-31T01:14:11.635Z,62.72
2022-08-31T01:15:18.973Z,63.21
2022-08-31T01:16:32.449Z,63.49
2022-08-31T01:17:38.251Z,64.26
2022-08-31T01:18:44.623Z,63.70
2022-08-31T01:19:54.853Z,63.47
2022-08-31T01:21:22.796Z,63.23
2022-08-31T01:23:02.860Z,63.48
2022-08-31T01:24:08.816Z,63.18
2022-08-31T01:25:14.171Z,62.90
2022-08-31T01:26:22.133Z,63.11
2022-08-31T01:27:29.592Z,62.84
2022-08-31T01:28:32.387Z,63.34
2022-08-31T01:29:36.906Z,63.15
2022-08-31T01:30:51.651Z,63.22
2022-08-31T01:31:56.474Z,63.12
2022-08-31T01:32:59.909Z,63.22
2022-08-31T01:34:06.424Z,63.34
2022-08-31T01:36:27.228Z,63.36
2022-08-31T01:37:32.781Z,63.35
2022-08-31T01:38:38.376Z,63.29
2022-08-31T01:39:41.809Z,63.34
2022-08-31T01:41:03.200Z,63.50
2022-08-31T01:42:11.238Z,63.71
2022-08-31T01:43:15.065Z,64.23
2022-08-31T01:44:21.454Z,64.41
2022-08-31T01:45:29.909Z,64.74
2022-08-31T01:46:34.955Z,64.98
2022-08-31T01:47:44.141Z,65.20
2022-08-31T01:48:48.981Z,64.80
2022-08-31T01:49:53.231Z,65.00
2022-08-31T01:51:04.071Z,65.06
2022-08-31T01:52:08.000Z,65.04
2022-08-31T01:53:11.540Z,65.39
2022-08-31T01:54:15.907Z,65.38
2022-08-31T01:55:20.074Z,64.86
2022-08-31T01:56:30.018Z,64.85
2022-08-31T01:57:36.617Z,64.91
2022-08-31T01:59:00.000Z,65.00
2022-08-31T02:00:19.072Z,65.07
2022-08-31T02:01:33.510Z,65.13
2022-08-31T02:02:35.840Z,65.25
2022-08-31T02:04:56.632Z,65.41
2022-08-31T02:07:04.857Z,65.08
2022-08-31T02:08:11.430Z,64.94
2022-08-31T02:09:16.779Z,65.10
2022-08-31T02:10:20.196Z,65.08
2022-08-31T02:11:23.993Z,65.29
2022-08-31T02:12:28.649Z,65.35
2022-08-31T02:13:34.109Z,65.07
2022-08-31T02:14:37.677Z,65.07
2022-08-31T02:15:41.357Z,64.99
2022-08-31T02:16:46.903Z,65.03
2022-08-31T02:17:53.339Z,65.03
2022-08-31T02:18:57.317Z,64.86
2022-08-31T02:20:01.674Z,64.99
2022-08-31T02:21:07.065Z,64.91
2022-08-31T02:23:27.674Z,64.96
2022-08-31T02:24:33.350Z,64.93
2022-08-31T02:25:37.236Z,64.87
2022-08-31T02:26:42.134Z,64.96
2022-08-31T02:27:47.127Z,65.07
2022-08-31T02:28:50.995Z,65.73
2022-08-31T02:29:55.048Z,65.76
2022-08-31T02:30:58.831Z,65.60
2022-08-31T02:32:02.277Z,65.74
2022-08-31T02:33:06.728Z,65.57
2022-08-31T02:34:11.024Z,65.47
2022-08-31T02:35:18.085Z,65.74
2022-08-31T02:36:23.253Z,66.12
2022-08-31T02:37:28.119Z,65.95
2022-08-31T02:38:36.679Z,65.72
2022-08-31T02:39:41.669Z,66.03
2022-08-31T02:40:47.161Z,66.02
2022-08-31T02:41:50.744Z,66.23
2022-08-31T02:42:55.115Z,66.22
2022-08-31T02:44:00.462Z,66.38
2022-08-31T02:45:07.256Z,66.37
2022-08-31T02:46:11.282Z,66.54
2022-08-31T02:47:17.311Z,66.75
2022-08-31T02:48:25.771Z,66.54
2022-08-31T02:49:29.465Z,66.74
2022-08-31T02:50:39.890Z,66.61
2022-08-31T02:51:46.141Z,66.74
2022-08-31T02:52:51.318Z,66.92
2022-08-31T02:53:59.422Z,66.65
2022-08-31T02:55:03.771Z,66.60
2022-08-31T02:56:08.539Z,66.65
2022-08-31T02:57:13.066Z,66.44
2022-08-31T02:58:20.683Z,66.50
2022-08-31T02:59:22.665Z,66.42
2022-08-31T03:00:25.497Z,66.27
2022-08-31T03:01:28.600Z,66.22
2022-08-31T03:02:32.818Z,66.31
2022-08-31T03:03:40.511Z,66.57
2022-08-31T03:04:46.086Z,66.38
2022-08-31T03:05:51.393Z,66.20
2022-08-31T03:06:55.421Z,66.33
2022-08-31T03:07:59.151Z,66.05
2022-08-31T03:09:04.296Z,66.10
2022-08-31T03:10:10.486Z,65.98
2022-08-31T03:11:14.834Z,66.11
2022-08-31T03:12:20.553Z,66.22
2022-08-31T03:13:23.980Z,66.06
2022-08-31T03:14:27.829Z,65.96
2022-08-31T03:15:32.062Z,66.20
2022-08-31T03:16:42.109Z,66.01
2022-08-31T03:17:46.463Z,65.96
2022-08-31T03:18:53.133Z,65.67
2022-08-31T03:20:01.244Z,65.65
2022-08-31T03:21:05.059Z,65.62
2022-08-31T03:22:08.657Z,65.65
2022-08-31T03:23:11.763Z,65.66
2022-08-31T03:24:16.621Z,65.65
2022-08-31T03:25:21.191Z,65.33
2022-08-31T03:26:31.292Z,65.31
2022-08-31T03:27:38.043Z,65.28
2022-08-31T03:28:41.998Z,65.33
2022-08-31T03:29:56.816Z,65.39
2022-08-31T03:31:01.942Z,65.46
2022-08-31T03:32:05.341Z,65.81
2022-08-31T03:33:10.434Z,66.45
2022-08-31T03:34:16.037Z,66.86
2022-08-31T03:35:20.341Z,66.51
2022-08-31T03:36:25.612Z,66.55
2022-08-31T03:37:32.190Z,66.80
2022-08-31T03:38:35.702Z,67.20
2022-08-31T03:39:38.773Z,66.85
2022-08-31T03:40:42.849Z,67.04
2022-08-31T03:41:46.560Z,66.97
2022-08-31T03:42:49.778Z,66.93
2022-08-31T03:43:55.642Z,67.00
2022-08-31T03:44:59.139Z,66.57
2022-08-31T03:46:11.937Z,66.31
2022-08-31T03:47:11.713Z,65.89
2022-08-31T03:48:17.316Z,65.45
2022-08-31T03:49:22.466Z,65.57
2022-08-31T03:50:39.859Z,65.98
2022-08-31T03:51:46.084Z,65.65
2022-08-31T03:53:57.282Z,65.73
2022-08-31T03:55:05.900Z,66.17
2022-08-31T03:56:12.429Z,66.23
2022-08-31T03:57:17.599Z,66.44
2022-08-31T03:58:21.293Z,66.22
2022-08-31T03:59:25.611Z,65.86
2022-08-31T04:00:42.515Z,66.36
2022-08-31T04:01:48.066Z,66.36
2022-08-31T04:03:10.015Z,66.11
2022-08-31T04:04:15.438Z,65.66
2022-08-31T04:05:23.481Z,65.76
2022-08-31T04:06:44.837Z,65.28
2022-08-31T04:08:08.156Z,65.44
2022-08-31T04:10:47.623Z,65.20
2022-08-31T04:12:10.181Z,65.18
2022-08-31T04:13:19.164Z,64.80
2022-08-31T04:14:33.577Z,65.03
2022-08-31T04:15:59.550Z,65.31
2022-08-31T04:17:17.525Z,65.03
2022-08-31T04:18:22.279Z,66.10
2022-08-31T04:19:26.137Z,66.53
2022-08-31T04:20:40.224Z,66.99
2022-08-31T04:21:49.354Z,67.61
2022-08-31T04:24:05.611Z,67.78
2022-08-31T04:25:09.717Z,68.48
2022-08-31T04:26:20.820Z,67.70
2022-08-31T04:27:24.722Z,67.51
2022-08-31T04:28:28.819Z,67.38
2022-08-31T04:29:32.641Z,67.65
2022-08-31T04:30:41.274Z,67.39
2022-08-31T04:31:45.353Z,67.37
2022-08-31T04:32:49.425Z,66.90
2022-08-31T04:33:53.792Z,67.31
2022-08-31T04:34:58.991Z,67.61
2022-08-31T04:36:09.729Z,67.34
2022-08-31T04:37:16.456Z,67.20
2022-08-31T04:38:19.168Z,67.29
2022-08-31T04:39:24.114Z,66.67
2022-08-31T04:40:29.099Z,66.30
2022-08-31T04:41:37.201Z,66.24
2022-08-31T04:42:43.104Z,66.19
2022-08-31T04:43:51.846Z,66.41
2022-08-31T04:44:55.688Z,66.00
2022-08-31T04:46:02.282Z,66.20
2022-08-31T04:47:07.100Z,65.97
2022-08-31T04:48:10.972Z,65.64
2022-08-31T04:49:15.553Z,65.39
2022-08-31T04:50:23.420Z,66.00
2022-08-31T04:51:44.218Z,65.61
2022-08-31T04:53:03.865Z,65.74
2022-08-31T04:54:00.876Z,65.49
2022-08-31T04:55:07.772Z,65.51
2022-08-31T04:56:20.476Z,65.88
2022-08-31T04:57:24.443Z,65.56
2022-08-31T04:58:27.069Z,65.78
2022-08-31T04:59:31.286Z,64.78
2022-08-31T05:00:45.323Z,64.14
2022-08-31T05:01:50.906Z,59.95
2022-08-31T05:03:15.391Z,56.58
2022-08-31T05:04:23.546Z,56.24
2022-08-31T05:05:28.669Z,57.57
2022-08-31T05:06:35.233Z,58.52
2022-08-31T05:07:37.947Z,58.43
2022-08-31T05:08:44.483Z,58.05
2022-08-31T05:09:50.416Z,56.04
2022-08-31T05:10:55.176Z,53.82
2022-08-31T05:11:58.288Z,52.32
2022-08-31T05:13:02.872Z,52.82
2022-08-31T05:14:08.733Z,54.11
2022-08-31T05:15:13.998Z,54.88
2022-08-31T05:16:19.839Z,54.99
2022-08-31T05:17:23.869Z,55.48
2022-08-31T05:18:28.068Z,56.24
2022-08-31T05:19:40.995Z,56.15
2022-08-31T05:20:43.050Z,56.22
2022-08-31T05:21:51.114Z,56.92
2022-08-31T05:22:58.250Z,57.82
2022-08-31T05:24:11.623Z,58.06
2022-08-31T05:25:16.779Z,58.18
2022-08-31T05:26:26.693Z,58.51
2022-08-31T05:27:30.316Z,58.63
2022-08-31T05:28:34.915Z,58.72
2022-08-31T05:29:38.534Z,58.59
2022-08-31T05:31:01.205Z,58.95
2022-08-31T05:32:10.598Z,59.00
2022-08-31T05:33:16.407Z,58.58
2022-08-31T05:34:21.848Z,58.67
2022-08-31T05:35:26.186Z,58.49
2022-08-31T05:36:35.193Z,57.73
2022-08-31T05:37:36.270Z,57.09
2022-08-31T05:38:40.927Z,55.81
2022-08-31T05:39:46.574Z,54.90
2022-08-31T05:40:56.353Z,54.63
2022-08-31T05:41:59.624Z,54.44
2022-08-31T05:43:03.217Z,54.35
2022-08-31T05:44:12.162Z,53.89
2022-08-31T05:45:19.678Z,54.39
2022-08-31T05:46:29.201Z,54.14
2022-08-31T05:47:34.029Z,53.86
2022-08-31T05:48:38.895Z,54.13
2022-08-31T05:49:45.219Z,54.05
2022-08-31T05:50:50.923Z,52.66
2022-08-31T05:51:57.800Z,52.50
2022-08-31T05:53:03.291Z,52.51
2022-08-31T05:54:08.472Z,52.71
2022-08-31T05:55:16.520Z,54.63
2022-08-31T05:56:28.604Z,54.90
2022-08-31T05:57:33.346Z,54.29
2022-08-31T05:58:39.133Z,53.89
2022-08-31T05:59:42.498Z,53.71
2022-08-31T06:00:47.251Z,53.90
2022-08-31T06:01:53.163Z,53.45
2022-08-31T06:03:03.313Z,53.57
2022-08-31T06:04:09.082Z,52.96
2022-08-31T06:05:16.269Z,52.78
2022-08-31T06:06:22.859Z,52.05
2022-08-31T06:07:26.476Z,52.06
2022-08-31T06:08:33.535Z,52.69
2022-08-31T06:09:39.546Z,52.01
2022-08-31T06:10:48.322Z,51.72
2022-08-31T06:11:55.141Z,51.51
2022-08-31T06:12:59.193Z,50.52
2022-08-31T06:14:06.194Z,50.28
2022-08-31T06:15:13.931Z,50.25
2022-08-31T06:16:21.618Z,49.19
2022-08-31T06:17:29.231Z,48.71
2022-08-31T06:18:32.965Z,47.42
2022-08-31T06:19:41.044Z,47.09
2022-08-31T06:20:45.868Z,47.95
2022-08-31T06:21:51.548Z,47.87
2022-08-31T06:22:56.676Z,47.51
2022-08-31T06:24:04.005Z,47.64
2022-08-31T06:25:10.705Z,47.64
2022-08-31T06:26:17.051Z,47.46
2022-08-31T06:27:20.957Z,47.27
2022-08-31T06:28:26.490Z,47.61
2022-08-31T06:54:29.126Z,38.40
2022-08-31T06:55:36.062Z,39.68
2022-08-31T06:56:59.919Z,40.52
2022-08-31T06:58:04.559Z,38.56
2022-08-31T06:59:19.312Z,37.18
2022-08-31T07:00:41.823Z,35.56
2022-08-31T07:01:48.684Z,35.84
2022-08-31T07:02:57.595Z,35.69
2022-08-31T07:04:06.061Z,33.03
2022-08-31T07:05:15.064Z,29.77
2022-08-31T07:06:21.620Z,27.70
2022-08-31T07:07:32.363Z,26.60
2022-08-31T07:08:36.813Z,26.71
2022-08-31T07:09:45.538Z,27.98
2022-08-31T07:10:57.390Z,27.87
2022-08-31T07:12:03.209Z,28.59
2022-08-31T07:13:08.723Z,28.14
2022-08-31T07:14:16.720Z,27.19
2022-08-31T07:15:20.331Z,26.14
2022-08-31T07:16:27.217Z,25.19
2022-08-31T07:17:33.748Z,24.60
2022-08-31T07:18:40.384Z,24.89
2022-08-31T07:19:45.030Z,24.32
2022-08-31T07:20:50.240Z,24.64
2022-08-31T07:21:58.313Z,24.01
2022-08-31T07:23:01.983Z,23.55
2022-08-31T07:24:07.937Z,23.05
2022-08-31T07:25:15.719Z,23.06
2022-08-31T07:26:26.581Z,24.12
2022-08-31T07:27:30.323Z,23.75
2022-08-31T07:28:43.713Z,24.38
2022-08-31T07:29:50.841Z,25.57
2022-08-31T07:30:55.341Z,24.78
2022-08-31T07:32:00.357Z,24.73
2022-08-31T07:33:06.023Z,24.06
2022-08-31T07:34:17.829Z,23.23
2022-08-31T07:35:23.508Z,23.24
2022-08-31T07:36:32.754Z,24.02
2022-08-31T07:37:57.016Z,24.02
2022-08-31T07:39:24.188Z,23.81
2022-08-31T07:40:47.809Z,23.47
2022-08-31T07:42:11.739Z,22.90
2022-08-31T07:43:16.754Z,23.54
2022-08-31T07:44:24.790Z,23.74
2022-08-31T07:45:37.723Z,25.01
2022-08-31T07:46:41.509Z,28.54
2022-08-31T07:47:48.018Z,32.52
2022-08-31T07:48:53.194Z,35.64
2022-08-31T07:50:01.897Z,32.69
2022-08-31T07:52:29.919Z,27.81
2022-08-31T07:53:40.114Z,27.39
2022-08-31T07:54:59.075Z,29.64
2022-08-31T07:56:04.851Z,29.27
2022-08-31T07:57:18.257Z,30.76
2022-08-31T07:58:23.617Z,32.87
2022-08-31T07:59:26.884Z,29.82
2022-08-31T08:00:38.047Z,27.96
2022-08-31T08:01:49.057Z,27.92
2022-08-31T08:02:57.626Z,27.29
2022-08-31T08:04:05.078Z,26.73
2022-08-31T08:05:29.914Z,25.61
2022-08-31T08:06:36.555Z,31.50
2022-08-31T08:07:54.707Z,30.32
2022-08-31T08:09:24.180Z,28.46
2022-08-31T08:10:33.447Z,28.29
2022-08-31T08:12:01.206Z,28.64
2022-08-31T08:13:23.939Z,27.69
2022-08-31T08:14:33.724Z,26.37
2022-08-31T08:15:40.572Z,26.60
2022-08-31T08:18:10.411Z,27.28
2022-08-31T08:19:16.742Z,27.22
2022-08-31T08:20:34.573Z,27.56
2022-08-31T08:21:29.802Z,28.08
2022-08-31T08:22:54.268Z,28.12
2022-08-31T08:23:48.714Z,28.16
2022-08-31T08:25:03.018Z,28.49
2022-08-31T08:26:21.565Z,28.74
2022-08-31T08:27:40.537Z,28.09
2022-08-31T08:29:11.108Z,28.62
2022-08-31T08:30:18.661Z,28.68
2022-08-31T08:31:27.827Z,28.92
2022-08-31T08:32:35.745Z,28.77
2022-08-31T08:33:41.005Z,28.94
2022-08-31T08:34:46.539Z,28.90
2022-08-31T08:35:59.360Z,30.02
2022-08-31T08:37:05.257Z,29.49
2022-08-31T08:38:09.568Z,28.97
2022-08-31T08:40:40.050Z,29.70
2022-08-31T08:41:48.559Z,29.51
2022-08-31T08:42:54.422Z,29.65
2022-08-31T08:44:02.148Z,29.68
2022-08-31T08:45:09.110Z,31.97
2022-08-31T08:46:33.941Z,33.07
2022-08-31T08:47:24.016Z,32.99
2022-08-31T08:48:34.551Z,33.27
2022-08-31T08:49:54.866Z,34.26
2022-08-31T08:51:07.578Z,34.26
2022-08-31T08:52:36.921Z,35.99
2022-08-31T08:53:44.700Z,36.32
2022-08-31T08:55:09.035Z,37.23
2022-08-31T08:56:32.306Z,37.94
2022-08-31T08:57:26.627Z,36.50
2022-08-31T08:58:33.132Z,34.95
2022-08-31T08:59:37.795Z,33.07
2022-08-31T09:00:44.743Z,32.19
2022-08-31T09:01:54.401Z,30.65
2022-08-31T09:03:28.049Z,29.81
2022-08-31T09:04:47.944Z,30.91
2022-08-31T09:05:57.854Z,32.06
2022-08-31T09:07:08.671Z,30.82
2022-08-31T09:08:31.662Z,30.84
2022-08-31T09:09:57.249Z,31.15
2022-08-31T09:11:12.104Z,31.72
2022-08-31T09:12:40.144Z,32.47
2022-08-31T09:14:25.011Z,33.75
2022-08-31T09:15:52.288Z,35.51
2022-08-31T09:17:06.486Z,36.02
2022-08-31T09:18:13.734Z,36.57
2022-08-31T09:19:22.461Z,36.81
2022-08-31T09:20:29.872Z,36.83
2022-08-31T09:21:58.509Z,37.64
2022-08-31T09:23:04.700Z,38.19
2022-08-31T09:24:12.280Z,38.01
2022-08-31T09:27:03.811Z,38.09
2022-08-31T09:28:15.200Z,37.46
2022-08-31T09:29:29.059Z,36.23
2022-08-31T09:30:41.294Z,35.65
2022-08-31T09:31:46.347Z,35.32
2022-08-31T09:32:57.083Z,34.56
2022-08-31T09:34:01.219Z,34.41
2022-08-31T09:35:11.986Z,34.54
2022-08-31T09:36:24.071Z,35.37
2022-08-31T09:37:37.979Z,34.85
2022-08-31T09:38:42.685Z,34.08
2022-08-31T09:39:49.274Z,33.88
2022-08-31T09:40:54.156Z,33.84
2022-08-31T09:42:04.388Z,33.94
2022-08-31T09:43:17.774Z,32.91
2022-08-31T09:44:40.829Z,32.84
2022-08-31T09:46:02.099Z,34.01
2022-08-31T09:47:11.913Z,33.09
2022-08-31T09:48:19.242Z,33.55
2022-08-31T09:49:29.818Z,34.07
2022-08-31T09:50:46.874Z,35.50
2022-08-31T09:51:49.872Z,37.22
2022-08-31T09:53:32.007Z,37.61
2022-08-31T09:54:54.906Z,38.12
2022-08-31T09:56:23.288Z,39.50
2022-08-31T09:57:52.598Z,39.03
2022-08-31T09:59:06.043Z,37.49
2022-08-31T10:00:22.886Z,37.12
2022-08-31T10:01:46.281Z,36.78
2022-08-31T10:02:54.826Z,35.44
2022-08-31T10:04:23.064Z,35.58
2022-08-31T10:05:40.307Z,35.45
2022-08-31T10:07:09.823Z,34.19
2022-08-31T10:08:24.002Z,33.61
2022-08-31T10:10:54.690Z,33.07
2022-08-31T10:12:04.310Z,33.62
2022-08-31T10:13:20.593Z,33.36
2022-08-31T10:14:39.436Z,34.20
2022-08-31T10:15:48.904Z,34.03
2022-08-31T10:16:57.937Z,34.10
2022-08-31T10:18:06.497Z,34.13
2022-08-31T10:19:13.830Z,34.10
2022-08-31T10:20:20.679Z,32.98
2022-08-31T10:22:51.249Z,33.58
2022-08-31T10:24:05.792Z,34.43
2022-08-31T10:25:33.466Z,34.02
2022-08-31T10:26:48.626Z,33.87
2022-08-31T10:28:09.638Z,34.03
2022-08-31T10:29:24.963Z,34.18
2022-08-31T10:30:41.076Z,33.86
2022-08-31T10:31:48.587Z,34.72
2022-08-31T10:32:57.800Z,35.77
2022-08-31T10:34:27.023Z,36.01
2022-08-31T10:35:50.847Z,36.26
2022-08-31T10:38:23.804Z,36.74
2022-08-31T10:39:46.178Z,36.76
2022-08-31T10:40:54.175Z,37.25
2022-08-31T10:41:58.759Z,36.87
2022-08-31T10:43:15.981Z,36.06
2022-08-31T10:44:40.262Z,35.20
2022-08-31T10:45:49.916Z,35.69
2022-08-31T10:46:59.138Z,36.98
2022-08-31T10:48:03.598Z,37.67
2022-08-31T10:49:06.693Z,38.18
2022-08-31T10:50:17.700Z,38.99
2022-08-31T10:51:29.794Z,39.57
2022-08-31T10:52:38.437Z,39.67
2022-08-31T10:53:53.808Z,40.38
2022-08-31T10:56:46.265Z,40.00
2022-08-31T10:57:57.040Z,39.77
2022-08-31T10:59:10.483Z,39.71
2022-08-31T11:00:40.071Z,39.38
2022-08-31T11:01:47.046Z,39.20
2022-08-31T11:03:09.070Z,39.16
2022-08-31T11:04:39.426Z,39.05
2022-08-31T11:05:50.928Z,39.06
2022-08-31T11:07:28.697Z,39.53
2022-08-31T11:08:55.022Z,39.48
2022-08-31T11:10:30.237Z,39.85
2022-08-31T11:11:43.886Z,39.56
2022-08-31T11:12:47.169Z,39.11
2022-08-31T11:14:28.268Z,38.10
2022-08-31T11:15:47.499Z,37.45
2022-08-31T11:17:12.374Z,36.51
2022-08-31T11:20:01.388Z,36.77
2022-08-31T11:21:27.031Z,36.94
2022-08-31T11:22:40.557Z,37.32
2022-08-31T11:23:50.171Z,38.08
2022-08-31T11:25:26.985Z,38.74
2022-08-31T11:26:53.541Z,39.63
2022-08-31T11:28:04.359Z,39.43
2022-08-31T11:29:15.556Z,39.61
2022-08-31T11:30:29.614Z,39.63
2022-08-31T11:31:34.676Z,39.51
2022-08-31T11:32:42.798Z,39.68
2022-08-31T11:34:14.593Z,39.79
2022-08-31T11:35:06.678Z,39.78
2022-08-31T11:36:10.461Z,39.46
2022-08-31T11:37:53.153Z,39.57
2022-08-31T11:41:56.905Z,42.56
2022-08-31T11:43:01.691Z,42.52
2022-08-31T11:44:09.602Z,43.10
2022-08-31T11:45:32.968Z,43.38
2022-08-31T11:46:44.949Z,43.31
2022-08-31T11:47:49.548Z,42.59
2022-08-31T11:48:58.818Z,42.43
2022-08-31T11:50:07.767Z,42.22
2022-08-31T11:51:17.943Z,41.85
2022-08-31T11:52:35.003Z,41.83
2022-08-31T11:53:43.762Z,41.94
2022-08-31T11:54:51.329Z,41.33
2022-08-31T11:56:00.110Z,40.61
2022-08-31T11:57:06.860Z,40.78
2022-08-31T11:58:20.117Z,40.85
2022-08-31T11:59:26.696Z,40.25
2022-08-31T12:00:57.157Z,40.63
2022-08-31T12:02:24.534Z,40.09
2022-08-31T12:04:56.822Z,41.68
2022-08-31T12:06:00.528Z,42.26
2022-08-31T12:07:05.828Z,42.31
2022-08-31T12:08:12.757Z,42.56
2022-08-31T12:09:25.468Z,42.24
2022-08-31T12:10:35.813Z,41.83
2022-08-31T12:11:58.124Z,42.13
2022-08-31T12:13:20.788Z,41.73
2022-08-31T12:14:51.699Z,41.74
2022-08-31T12:16:13.346Z,41.64
2022-08-31T12:17:22.797Z,41.26
2022-08-31T12:18:33.035Z,41.53
2022-08-31T12:20:08.818Z,41.83
2022-08-31T12:21:46.129Z,41.20
2022-08-31T12:23:35.115Z,41.46
2022-08-31T12:25:17.450Z,41.06
2022-08-31T12:26:28.766Z,40.19
2022-08-31T12:27:57.084Z,40.46
2022-08-31T12:29:17.650Z,40.43
2022-08-31T12:30:26.407Z,40.20
2022-08-31T12:31:29.492Z,40.20
2022-08-31T12:32:37.929Z,40.25
2022-08-31T12:34:03.068Z,40.48
2022-08-31T12:35:25.067Z,40.79
2022-08-31T12:36:31.784Z,40.09
2022-08-31T12:37:45.443Z,40.24
2022-08-31T12:38:53.207Z,40.02
2022-08-31T12:40:18.935Z,40.79
2022-08-31T12:41:25.519Z,41.00
2022-08-31T12:42:32.029Z,40.69
2022-08-31T12:43:45.278Z,40.94
2022-08-31T12:44:52.717Z,40.81
2022-08-31T12:46:05.636Z,41.22
2022-08-31T12:47:28.952Z,41.12
2022-08-31T12:48:59.020Z,41.35
2022-08-31T12:50:11.028Z,41.24
2022-08-31T12:51:39.395Z,40.49
2022-08-31T12:53:03.684Z,39.41
2022-08-31T12:54:25.665Z,39.04
2022-08-31T12:55:39.156Z,38.83
2022-08-31T12:57:01.247Z,38.78
2022-08-31T13:00:01.015Z,39.05
2022-08-31T13:01:17.882Z,38.84
2022-08-31T13:02:22.408Z,39.11
2022-08-31T13:03:28.795Z,38.90
2022-08-31T13:04:32.259Z,38.57
2022-08-31T13:05:39.013Z,38.73
2022-08-31T13:06:46.434Z,38.98
2022-08-31T13:09:07.570Z,40.02
2022-08-31T13:10:15.397Z,40.05
2022-08-31T13:11:40.773Z,40.13
2022-08-31T13:12:54.858Z,40.66
2022-08-31T13:14:12.286Z,41.18
2022-08-31T13:15:39.130Z,40.59
2022-08-31T13:16:51.333Z,39.72
2022-08-31T13:17:57.269Z,39.89
2022-08-31T13:19:07.046Z,39.75
2022-08-31T13:20:15.212Z,39.75
2022-08-31T13:21:23.166Z,39.43
2022-08-31T13:22:32.887Z,39.51
2022-08-31T13:23:39.742Z,39.83
2022-08-31T13:24:53.503Z,39.66
2022-08-31T13:26:23.139Z,39.95
2022-08-31T13:27:28.918Z,39.40
2022-08-31T13:28:33.584Z,39.87
2022-08-31T13:49:29.567Z,41.78
2022-08-31T13:50:48.833Z,41.78
2022-08-31T13:51:55.531Z,41.78
2022-08-31T13:53:26.493Z,41.40
2022-08-31T13:54:12.805Z,41.55
2022-08-31T13:55:37.192Z,41.18
2022-08-31T13:56:56.990Z,41.11
2022-08-31T13:58:03.933Z,41.30
2022-08-31T13:59:35.094Z,41.77
2022-08-31T14:00:41.795Z,41.45
2022-08-31T14:01:50.913Z,41.21
2022-08-31T14:03:00.431Z,40.76
2022-08-31T14:04:03.863Z,40.66
2022-08-31T14:05:14.356Z,40.46
2022-08-31T14:06:25.110Z,40.51
2022-08-31T14:08:59.460Z,41.52
2022-08-31T14:10:11.359Z,41.24
2022-08-31T14:11:16.440Z,40.83
2022-08-31T14:12:25.281Z,41.01
2022-08-31T14:13:30.801Z,40.76
2022-08-31T14:14:44.068Z,40.70
2022-08-31T14:15:56.608Z,40.70
2022-08-31T14:17:03.554Z,41.00
2022-08-31T14:18:25.686Z,40.23
2022-08-31T14:19:39.578Z,40.01
2022-08-31T14:21:03.956Z,39.83
2022-08-31T14:21:56.641Z,40.14
2022-08-31T14:23:01.721Z,40.18
2022-08-31T14:24:09.453Z,40.66
2022-08-31T14:25:12.755Z,40.87
2022-08-31T14:26:22.997Z,41.01
2022-08-31T14:27:26.874Z,41.28
2022-08-31T14:28:43.903Z,41.15
2022-08-31T14:29:50.604Z,40.75
2022-08-31T14:30:55.486Z,41.90
2022-08-31T14:31:59.909Z,41.90
2022-08-31T14:33:04.242Z,41.50
2022-08-31T14:34:24.289Z,41.50
2022-08-31T14:35:28.543Z,41.48
2022-08-31T14:36:36.394Z,41.54
2022-08-31T14:37:43.128Z,41.52
2022-08-31T14:38:48.043Z,41.30
2022-08-31T14:40:04.174Z,41.71
2022-08-31T14:41:10.382Z,41.37
2022-08-31T14:42:25.578Z,41.14
2022-08-31T14:43:30.411Z,41.15
2022-08-31T14:44:47.438Z,41.34
2022-08-31T14:45:58.377Z,41.26
2022-08-31T14:47:01.773Z,41.52
2022-08-31T14:48:08.318Z,41.61
2022-08-31T14:49:13.065Z,41.62
2022-08-31T14:50:20.841Z,41.67
2022-08-31T14:51:27.582Z,41.90
2022-08-31T14:52:38.046Z,41.90
2022-08-31T14:53:43.719Z,41.91
2022-08-31T14:54:48.598Z,41.46
2022-08-31T14:55:55.405Z,41.20
2022-08-31T14:57:01.070Z,41.09
2022-08-31T14:58:09.447Z,41.38
2022-08-31T14:59:22.290Z,41.42
2022-08-31T15:00:29.039Z,41.51
2022-08-31T15:01:38.585Z,41.53
2022-08-31T15:02:43.727Z,41.21
2022-08-31T15:03:47.661Z,41.31
2022-08-31T15:04:52.480Z,41.29
2022-08-31T15:05:57.387Z,41.40
2022-08-31T15:07:09.496Z,41.36
2022-08-31T15:08:15.297Z,40.96
2022-08-31T15:09:25.160Z,41.07
2022-08-31T15:10:29.995Z,41.10
2022-08-31T15:11:36.482Z,41.29
2022-08-31T15:12:41.033Z,41.32
2022-08-31T15:13:45.865Z,41.35
2022-08-31T15:14:51.786Z,41.36
2022-08-31T15:15:58.047Z,40.81
2022-08-31T15:17:09.662Z,40.62
2022-08-31T15:18:16.767Z,40.51
2022-08-31T15:19:26.870Z,40.61
2022-08-31T15:20:35.267Z,40.31
2022-08-31T15:21:52.193Z,40.12
2022-08-31T15:22:53.397Z,39.93
2022-08-31T15:23:59.071Z,39.42
2022-08-31T15:25:06.154Z,39.76
2022-08-31T15:26:15.887Z,39.49
2022-08-31T15:27:22.378Z,39.53
2022-08-31T15:28:29.596Z,39.38
2022-08-31T15:29:35.583Z,39.49
2022-08-31T15:30:40.511Z,39.10
2022-08-31T15:31:53.373Z,39.10
2022-08-31T15:32:58.639Z,39.52
2022-08-31T15:34:01.935Z,39.33
2022-08-31T15:35:08.777Z,39.59
2022-08-31T15:36:16.985Z,39.98
2022-08-31T15:37:22.639Z,39.99
2022-08-31T15:38:25.687Z,40.37
2022-08-31T15:39:39.681Z,40.55
2022-08-31T15:40:45.140Z,40.51
2022-08-31T15:41:51.471Z,40.34
2022-08-31T15:42:54.727Z,40.26
2022-08-31T15:43:57.914Z,40.25
2022-08-31T15:45:02.888Z,40.63
2022-08-31T15:46:13.260Z,40.91
2022-08-31T15:47:33.522Z,40.81
2022-08-31T15:48:45.899Z,40.80
2022-08-31T15:49:52.548Z,40.71
2022-08-31T15:51:03.820Z,40.88
2022-08-31T15:52:10.107Z,40.92
2022-08-31T15:53:14.458Z,41.12
2022-08-31T15:54:23.037Z,41.81
2022-08-31T15:55:27.706Z,41.47
2022-08-31T15:56:40.220Z,41.42
2022-08-31T15:57:43.818Z,41.51
2022-08-31T15:58:49.066Z,41.37
2022-08-31T15:59:54.451Z,41.56
2022-08-31T16:00:58.005Z,41.68
2022-08-31T16:02:05.039Z,41.68
2022-08-31T16:03:10.229Z,41.96
2022-08-31T16:04:17.177Z,42.06
2022-08-31T16:05:22.615Z,42.16
2022-08-31T16:06:31.101Z,42.45
2022-08-31T16:07:39.830Z,42.41
2022-08-31T16:08:43.884Z,42.38
2022-08-31T16:09:48.718Z,42.67
2022-08-31T16:10:53.244Z,42.56
2022-08-31T16:11:57.224Z,42.68
2022-08-31T16:13:03.140Z,42.75
2022-08-31T16:14:09.271Z,42.67
2022-08-31T16:15:16.713Z,42.89
2022-08-31T16:16:30.945Z,42.90
2022-08-31T16:17:33.827Z,43.40
2022-08-31T16:18:39.188Z,43.61
2022-08-31T16:19:42.779Z,44.12
2022-08-31T16:20:47.580Z,43.90
2022-08-31T16:21:51.640Z,43.97
2022-08-31T16:22:58.826Z,43.92
2022-08-31T16:24:08.749Z,43.93
2022-08-31T16:25:15.587Z,43.85
2022-08-31T16:26:22.024Z,43.90
2022-08-31T16:27:24.875Z,43.93
2022-08-31T16:28:30.108Z,43.83
2022-08-31T16:29:34.417Z,43.90
2022-08-31T16:30:38.272Z,43.93
2022-08-31T16:31:45.282Z,43.84
2022-08-31T16:32:56.503Z,43.97
2022-08-31T16:34:06.400Z,44.26
2022-08-31T16:35:10.847Z,44.04
2022-08-31T16:36:18.723Z,44.19
2022-08-31T16:37:27.939Z,44.11